# WU historie - Weerstation Meteo 't Harde











Bezoek onze andere website:



Select another period ( hide this area )

Eenheden Periode Custom range Directly to
Metrisch Engels Beide
Dagelijkse Wekelijkse Maandelijkse Jaarlijkse
use both date-selectors for a custom range
previous Dag
With this date

WeatherUnderground graphs for this period ( click here )


Dagelijkse Samenvatting Dinsdag 18 februari 2020
Tijd Temp. ( °C ) Dew pt. ( °C ) Wind ( km/h ) van Windvlaag ( km/h ) Luchtdruk ( hPa ) Humid.( % ) Rainrate ( cm )
Hoog9,7 6,4 22,7 NW ( 667/1279 ) 32,2 1018,2 91 0,50
Gemiddeld5,2 2,3 6,7 NW #88/190 -171,4 1016,3 71 0,70
Laag-17,8 -17,8 -   -1607,4 1012,4 0 -
Dagelijkse Tabular details for Dinsdag 18 februari 2020
Tijd Temp. ( °C ) Dew pt. ( °C ) Wind ( km/h ) van Windvlaag ( km/h ) Luchtdruk ( hPa ) Humid.( % ) Rainrate ( cm )
00:00 7,5 6,1 4,7 NW 6,4 1012,4 91 -
00:10 7,4 6,0 3,2 WZW 12,9 1012,8 91 -
00:15 7,4 6,0 6,4 Westen 11,3 1012,8 91 -
00:23 7,3 5,9 4,7 Westen 8,0 1012,8 91 -
00:26 7,3 5,9 3,2 WNW 6,4 1012,8 91 -
00:32 7,4 6,0 7,9 NW 14,5 1012,8 91 -
00:35 7,5 6,1 9,7 ZZW 19,3 1013,1 91 -
00:40 7,5 6,1 7,9 NW 12,9 1013,1 91 -
00:50 7,6 6,2 7,9 NW 12,9 1013,1 91 -
00:57 7,6 6,2 7,9 NW 17,7 1013,4 91 -
01:04 7,8 6,3 3,2 Westen 14,5 1013,4 90 -
01:07 7,8 6,3 3,2 WNW 11,3 1013,4 90 -
01:10 7,8 6,3 3,2 NW 11,3 1013,4 90 -
01:15 7,8 6,3 7,9 WZW 16,1 1013,4 90 -
01:21 7,8 6,3 4,7 WNW 9,7 1013,4 90 -
01:42 8,2 6,3 6,4 NW 25,7 1013,8 88 -
01:46 8,2 6,3 9,7 WNW 11,3 1013,4 88 -
01:51 8,2 6,2 4,7 NW 9,7 1013,8 87 -
01:57 8,1 6,2 14,3 NW 16,1 1013,8 88 0,30
02:11 8,1 6,4 3,2 NW 12,9 1013,8 89 0,30
02:19 7,9 6,2 1,4 NW 12,9 1013,8 89 0,30
02:27 8,0 6,1 19,5 NW 20,9 1013,8 88 0,30
02:30 8,0 6,1 9,7 WZW 14,5 1013,8 88 0,30
02:37 8,1 6,1 7,9 NW 16,1 1014,1 87 0,30
02:43 8,1 6,1 6,4 NW 22,5 1014,1 87 0,30
02:45 8,1 5,9 9,7 NW 20,9 1014,1 86 0,30
02:52 7,9 5,4 16,3 NW 20,9 1014,4 84 0,30
03:06 7,9 5,4 9,7 NW 27,4 1014,4 84 -
03:10 7,9 5,2 6,4 NW 19,3 1014,4 83 -
03:17 7,7 4,8 6,4 NW 19,3 1014,4 82 -
03:36 7,4 4,4 6,4 NW 11,3 1014,8 81 -
03:42 7,4 4,5 6,4 NW 12,9 1014,8 82 -
03:51 7,3 4,3 4,7 NW 14,5 1014,8 81 -
03:59 7,3 4,1 9,7 NW 9,7 1014,8 80 -
04:02 7,2 4,0 7,9 NW 14,5 1014,8 80 -
04:09 7,2 4,0 4,7 NW 14,5 1015,1 80 0,30
04:10 7,2 4,2 11,1 NW 29,0 1015,1 81 0,30
04:23 6,5 4,2 3,2 Westen 8,0 1015,1 85 0,50
04:30 6,5 4,2 6,4 NW 6,4 1015,1 85 0,50
04:37 6,7 4,4 4,7 NW 12,9 1015,1 85 0,50
04:42 6,8 4,3 3,2 NW 22,5 1015,1 84 0,50
04:48 6,8 4,1 7,9 WNW 30,6 1015,1 83 0,50
04:56 6,9 4,2 4,7 WNW 8,0 1015,1 83 0,50
05:00 6,9 4,2 4,7 NW 9,7 1015,1 83 0,50
05:06 6,8 4,3 4,7 NW 8,0 1015,5 84 0,50
05:22 6,9 3,9 9,7 NW 12,9 1015,8 81 -
05:26 6,9 3,9 7,9 NW 14,5 1015,8 81 -
05:30 6,8 3,8 14,3 NW 16,1 1015,8 81 -
05:35 6,8 3,8 6,4 WNW 20,9 1015,8 81 -
05:40 6,8 3,6 4,7 NW 20,9 1015,8 80 -
05:45 6,8 3,6 20,9 NNW 22,5 1016,1 80 -
05:50 6,7 3,5 7,9 Westen 17,7 1015,8 80 -
06:00 6,6 3,2 13,0 NW 14,5 1016,1 79 -
06:07 6,6 3,4 4,7 WNW 11,3 1016,1 80 -
06:10 6,5 3,3 4,7 WNW 14,5 1016,1 80 -
06:16 6,6 3,6 13,0 NW 16,1 1016,1 81 -
06:29 6,5 3,3 4,7 NW 4,8 1016,1 80 -
06:35 6,5 3,3 4,7 NW 16,1 1016,1 80 -
06:40 6,5 3,3   Kalm -1607,4 1016,1 80 -
06:54 -17,8 -17,8   Kalm -1607,4 1016,5 0 -
06:56 -17,8 -17,8   Kalm -1607,4 1016,5 0 -
07:06 -17,8 -17,8   Kalm -1607,4 1016,5 0 -
07:21 -17,8 -17,8   Kalm -1607,4 1016,8 0 -
07:26 -17,8 -17,8   Kalm -1607,4 1016,8 0 -
07:35 -17,8 -17,8   Kalm -1607,4 1016,8 0 -
07:41 -17,8 -17,8   Kalm -1607,4 1016,8 0 -
07:45 -17,8 -17,8   Kalm -1607,4 1016,8 0 -
07:51 -17,8 -17,8   Kalm -1607,4 1016,8 0 -
08:02 -17,8 -17,8   Kalm -1607,4 1017,2 0 -
08:07 -17,8 -17,8   Kalm -1607,4 1017,2 0 -
08:13 -17,8 -17,8   Kalm -1607,4 1017,2 0 -
08:15 -17,8 -17,8   Kalm -1607,4 1017,2 0 -
08:24 -17,8 -17,8   Kalm -1607,4 1017,5 0 -
08:26 -17,8 -17,8   Kalm -1607,4 1017,5 0 -
08:33 -17,8 -17,8   Kalm -1607,4 1017,5 0 -
08:41 -17,8 -17,8   Kalm -1607,4 1017,5 0 -
08:46 -17,8 -17,8   Kalm -1607,4 1017,8 0 -
08:54 -17,8 -17,8   Kalm -1607,4 1017,8 0 -
08:57 -17,8 -17,8   Kalm -1607,4 1017,8 0 -
09:03 -17,8 -17,8   Kalm -1607,4 1017,8 0 -
09:10 6,2 4,0 4,7 Zuiden 24,1 1017,5 86 -
09:19 6,4 4,2 13,0 ZW 19,3 1017,8 86 -
09:26 6,4 4,2 6,4 ZZW 19,3 1017,8 86 -
09:31 6,4 4,2 11,1 WZW 11,3 1017,8 86 -
09:35 6,6 4,4 7,9 ZW 14,5 1017,8 86 -
09:41 6,8 4,6 4,7 NW 14,5 1017,8 86 -
09:45 7,1 4,7 16,3 NW 20,9 1017,8 85 -
09:52 7,2 4,7 13,0 ZW 14,5 1018,2 84 -
09:55 7,1 4,6 11,1 ZW 14,5 1018,2 84 -
10:01 7,2 4,7 6,4 NW 16,1 1018,2 84 -
10:06 7,3 4,8 1,4 Westen 8,0 1018,2 84 -
10:10 7,4 4,7 6,4 WNW 14,5 1017,8 83 -
10:15 7,5 4,8 6,4 WZW 14,5 1018,2 83 -
10:24 7,8 5,1 4,7 ZZW 12,9 1017,8 83 -
10:26 7,8 4,9 7,9 Westen 14,5 1017,8 82 -
10:34 7,5 4,6 7,9 ZW 20,9 1017,8 82 -
10:35 7,4 4,7 6,4 WNW 14,5 1017,8 83 -
10:42 7,2 4,8 6,4 WNW 9,7 1017,8 85 -
10:45 7,1 4,7 3,2 WZW 16,1 1017,8 85 -
10:51 7,2 4,8 3,2 WZW 14,5 1017,8 85 -
10:55 7,3 4,9 7,9 NW 16,1 1018,2 85 -
11:00 7,4 4,9 4,7 NW 17,7 1018,2 84 -
11:15 7,5 4,8 4,7 ZW 16,1 1017,8 83 -
11:20 7,6 4,9 7,9 NW 20,9 1017,8 83 0,30
11:25 7,8 4,9 13,0 ZZW 19,3 1017,8 82 0,30
11:30 7,9 4,8 7,9 WNW 20,9 1017,8 81 0,30
11:35 8,0 4,9 7,9 NW 19,3 1017,8 81 0,30
11:44 8,6 5,3 11,1 WNW 20,9 1017,8 80 0,30
11:46 8,6 5,2 6,4 NW 14,5 1017,8 79 0,30
11:50 8,5 5,1 7,9 NW 19,3 1017,8 79 0,30
11:55 8,2 5,0 11,1 ZZW 24,1 1018,2 80 0,30
12:00 7,6 4,7 6,4 WNW 11,3 1018,2 82 0,30
12:05 7,3 4,8 1,4 NW 14,5 1018,2 84 0,30
12:10 7,3 4,9 1,4 NW 14,5 1017,8 85 0,30
12:17 7,5 5,1 11,1 ZW 14,5 1017,8 85 0,30
12:20 7,6 5,1 4,7 NW 12,9 1017,8 84 -
12:30 7,9 5,0 13,0 WZW 14,5 1017,8 82 -
12:35 8,2 5,3 9,7 NW 12,9 1017,8 82 -
12:40 8,3 5,2 6,4 WNW 16,1 1017,8 81 -
12:46 8,5 5,1 4,7 WNW 27,4 1017,8 79 -
12:53 8,6 5,3 13,0 ZZW 19,3 1017,8 80 -
12:55 8,5 5,1 4,7 NNW 25,7 1017,5 79 -
13:01 8,3 5,1 9,7 NW 17,7 1017,8 80 -
13:08 8,0 5,1 9,7 WNW 14,5 1017,8 82 -
13:11 8,0 5,5 6,4 WZW 9,7 1017,8 84 -
13:16 8,2 5,8 4,7 NNW 25,7 1017,5 85 -
13:21 8,4 5,7 6,4 Westen 19,3 1017,5 83 -
13:25 8,7 5,8 4,7 NW 16,1 1017,5 82 -
13:31 9,2 5,9 9,7 NW 17,7 1017,5 80 -
13:36 9,7 6,0 6,4 ZW 19,3 1017,5 78 -
13:46 9,3 5,3 4,7 ZW 22,5 1017,5 76 -
13:50 9,2 5,2 13,0 WZW 14,5 1017,5 76 -
13:57 8,8 5,0 6,4 NNW 20,9 1017,5 77 -
14:02 8,9 5,1 9,7 NW 20,9 1017,5 77 -
14:05 9,2 5,2 13,0 NNW 19,3 1017,5 76 -
14:12 9,3 4,9 6,4 NW 19,3 1017,5 74 -
14:15 9,1 4,7 1,4 NW 27,4 1017,5 74 -
14:21 8,8 4,6 7,9 Westen 19,3 1017,5 75 -
14:28 8,9 4,5 16,3 ZZW 25,7 1017,5 74 -
14:33 9,3 4,5 9,7 NW 20,9 1017,5 72 -
14:38 9,3 4,3 6,4 WNW 16,1 1017,5 71 -
14:43 9,3 4,5 4,7 NW 19,3 1017,5 72 -
14:48 9,2 4,2 14,3 NW 24,1 1017,2 71 -
15:00 9,1 4,5 9,7 NW 22,5 1017,2 73 -
15:08 8,9 4,5 9,7 NW 16,1 1017,2 74 -
15:12 8,9 4,3 7,9 NW 19,3 1017,2 73 -
15:15 8,8 4,2 7,9 NW 24,1 1017,2 73 -
15:22 9,0 4,0 1,4 NW 20,9 1016,8 71 -
15:26 9,0 4,2 13,0 NW 12,9 1016,8 72 -
15:32 8,9 3,9 6,4 WNW 19,3 1016,8 71 -
15:39 9,1 4,1 9,7 NW 20,9 1016,8 71 -
15:44 9,2 4,4 11,1 NW 17,7 1016,8 72 -
15:46 9,3 4,3 13,0 NW 17,7 1016,8 71 -
15:55 9,5 4,3 11,1 WZW 17,7 1016,8 70 -
16:02 9,5 4,1 6,4 NW 32,2 1016,8 69 -
16:05 9,4 3,8 22,7 NW 22,5 1016,8 68 -
16:15 9,3 4,1 7,9 NW 22,5 1016,5 70 -
16:21 9,2 4,2 3,2 NW 11,3 1016,5 71 -
16:27 9,2 4,2 6,4 NW 20,9 1016,5 71 -
16:30 9,3 4,5 16,3 ZZW 16,1 1016,5 72 -
16:39 9,3 4,5 3,2 WZW 14,5 1016,5 72 -
16:41 9,3 4,5 6,4 ZZW 17,7 1016,5 72 -
16:46 9,3 4,5 4,7 WNW 9,7 1016,5 72 -
16:50 9,3 4,5 3,2 NW 8,0 1016,1 72 -
16:55 9,3 4,5 3,2 ZW 16,1 1016,1 72 -
17:01 9,2 4,4 4,7 ZW 19,3 1016,1 72 -
17:05 9,2 4,4 7,9 NW 16,1 1016,1 72 -
17:10 9,1 4,1 7,9 NW 14,5 1016,1 71 -
17:15 9,1 4,3 7,9 Westen 12,9 1016,1 72 -
17:20 9,1 4,3   Kalm 24,1 1016,1 72 -
17:27 9,1 4,5 1,4 NW 8,0 1016,1 73 -
17:30 9,0 4,4 6,4 WNW 14,5 1016,1 73 -
17:38 9,1 4,5 1,4 NW 14,5 1015,8 73 -
17:41 9,1 4,7 6,4 NW 11,3 1015,8 74 -
17:45 9,1 4,7 9,7 NW 19,3 1015,8 74 -
17:51 9,1 4,7 13,0 ZZW 17,7 1015,8 74 -
17:55 9,0 4,4 9,7 NW 22,5 1015,8 73 -
18:00 9,0 4,6 6,4 ZW 19,3 1015,8 74 -
18:05 9,1 4,7 3,2 NW 12,9 1015,8 74 -
18:10 9,1 4,7 7,9 WZW 12,9 1015,8 74 -
18:15 9,0 4,6 4,7 NW 22,5 1015,5 74 -
18:21 8,9 4,7 7,9 WNW 11,3 1015,5 75 -
18:25 8,9 4,7 16,3 ZW 16,1 1015,5 75 -
18:43 9,0 4,8 7,9 ZW 17,7 1015,5 75 -
18:46 9,0 4,8 4,7 WNW 17,7 1015,5 75 -
18:50 9,0 4,8 9,7 NW 17,7 1015,5 75 -
18:56 9,0 4,8 7,9 NW 11,3 1015,5 75 -
19:00 9,0 4,8 4,7 WZW 20,9 1015,1 75 -
19:05 9,0 4,6 17,7 ZZW 17,7 1015,1 74 -
19:11 9,0 4,6 7,9 NW 14,5 1015,1 74 -
Dagelijkse Samenvatting Dinsdag 18 februari 2020
Tijd Temp. ( °C ) Dew pt. ( °C ) Wind ( km/h ) van Windvlaag ( km/h ) Luchtdruk ( hPa ) Humid.( % ) Rainrate ( cm )
Hoog9,7 6,4 22,7 NW ( 667/1279 ) 32,2 1018,2 91 0,50
Gemiddeld5,2 2,3 6,7 NW #88/190 -171,4 1016,3 71 0,70
Laag-17,8 -17,8 -   -1607,4 1012,4 0 -
Dagelijkse Tabular details for Dinsdag 18 februari 2020
Tijd Temp. ( °C ) Dew pt. ( °C ) Wind ( km/h ) van Windvlaag ( km/h ) Luchtdruk ( hPa ) Humid.( % ) Rainrate ( cm )
00:00 7,5 6,1 4,7 NW 6,4 1012,4 91 -
00:10 7,4 6,0 3,2 WZW 12,9 1012,8 91 -
00:15 7,4 6,0 6,4 Westen 11,3 1012,8 91 -
00:23 7,3 5,9 4,7 Westen 8,0 1012,8 91 -
00:26 7,3 5,9 3,2 WNW 6,4 1012,8 91 -
00:32 7,4 6,0 7,9 NW 14,5 1012,8 91 -
00:35 7,5 6,1 9,7 ZZW 19,3 1013,1 91 -
00:40 7,5 6,1 7,9 NW 12,9 1013,1 91 -
00:50 7,6 6,2 7,9 NW 12,9 1013,1 91 -
00:57 7,6 6,2 7,9 NW 17,7 1013,4 91 -
01:04 7,8 6,3 3,2 Westen 14,5 1013,4 90 -
01:07 7,8 6,3 3,2 WNW 11,3 1013,4 90 -
01:10 7,8 6,3 3,2 NW 11,3 1013,4 90 -
01:15 7,8 6,3 7,9 WZW 16,1 1013,4 90 -
01:21 7,8 6,3 4,7 WNW 9,7 1013,4 90 -
01:42 8,2 6,3 6,4 NW 25,7 1013,8 88 -
01:46 8,2 6,3 9,7 WNW 11,3 1013,4 88 -
01:51 8,2 6,2 4,7 NW 9,7 1013,8 87 -
01:57 8,1 6,2 14,3 NW 16,1 1013,8 88 0,30
02:11 8,1 6,4 3,2 NW 12,9 1013,8 89 0,30
02:19 7,9 6,2 1,4 NW 12,9 1013,8 89 0,30
02:27 8,0 6,1 19,5 NW 20,9 1013,8 88 0,30
02:30 8,0 6,1 9,7 WZW 14,5 1013,8 88 0,30
02:37 8,1 6,1 7,9 NW 16,1 1014,1 87 0,30
02:43 8,1 6,1 6,4 NW 22,5 1014,1 87 0,30
02:45 8,1 5,9 9,7 NW 20,9 1014,1 86 0,30
02:52 7,9 5,4 16,3 NW 20,9 1014,4 84 0,30
03:06 7,9 5,4 9,7 NW 27,4 1014,4 84 -
03:10 7,9 5,2 6,4 NW 19,3 1014,4 83 -
03:17 7,7 4,8 6,4 NW 19,3 1014,4 82 -
03:36 7,4 4,4 6,4 NW 11,3 1014,8 81 -
03:42 7,4 4,5 6,4 NW 12,9 1014,8 82 -
03:51 7,3 4,3 4,7 NW 14,5 1014,8 81 -
03:59 7,3 4,1 9,7 NW 9,7 1014,8 80 -
04:02 7,2 4,0 7,9 NW 14,5 1014,8 80 -
04:09 7,2 4,0 4,7 NW 14,5 1015,1 80 0,30
04:10 7,2 4,2 11,1 NW 29,0 1015,1 81 0,30
04:23 6,5 4,2 3,2 Westen 8,0 1015,1 85 0,50
04:30 6,5 4,2 6,4 NW 6,4 1015,1 85 0,50
04:37 6,7 4,4 4,7 NW 12,9 1015,1 85 0,50
04:42 6,8 4,3 3,2 NW 22,5 1015,1 84 0,50
04:48 6,8 4,1 7,9 WNW 30,6 1015,1 83 0,50
04:56 6,9 4,2 4,7 WNW 8,0 1015,1 83 0,50
05:00 6,9 4,2 4,7 NW 9,7 1015,1 83 0,50
05:06 6,8 4,3 4,7 NW 8,0 1015,5 84 0,50
05:22 6,9 3,9 9,7 NW 12,9 1015,8 81 -
05:26 6,9 3,9 7,9 NW 14,5 1015,8 81 -
05:30 6,8 3,8 14,3 NW 16,1 1015,8 81 -
05:35 6,8 3,8 6,4 WNW 20,9 1015,8 81 -
05:40 6,8 3,6 4,7 NW 20,9 1015,8 80 -
05:45 6,8 3,6 20,9 NNW 22,5 1016,1 80 -
05:50 6,7 3,5 7,9 Westen 17,7 1015,8 80 -
06:00 6,6 3,2 13,0 NW 14,5 1016,1 79 -
06:07 6,6 3,4 4,7 WNW 11,3 1016,1 80 -
06:10 6,5 3,3 4,7 WNW 14,5 1016,1 80 -
06:16 6,6 3,6 13,0 NW 16,1 1016,1 81 -
06:29 6,5 3,3 4,7 NW 4,8 1016,1 80 -
06:35 6,5 3,3 4,7 NW 16,1 1016,1 80 -
06:40 6,5 3,3   Kalm -1607,4 1016,1 80 -
06:54 -17,8 -17,8   Kalm -1607,4 1016,5 0 -
06:56 -17,8 -17,8   Kalm -1607,4 1016,5 0 -
07:06 -17,8 -17,8   Kalm -1607,4 1016,5 0 -
07:21 -17,8 -17,8   Kalm -1607,4 1016,8 0 -
07:26 -17,8 -17,8   Kalm -1607,4 1016,8 0 -
07:35 -17,8 -17,8   Kalm -1607,4 1016,8 0 -
07:41 -17,8 -17,8   Kalm -1607,4 1016,8 0 -
07:45 -17,8 -17,8   Kalm -1607,4 1016,8 0 -
07:51 -17,8 -17,8   Kalm -1607,4 1016,8 0 -
08:02 -17,8 -17,8   Kalm -1607,4 1017,2 0 -
08:07 -17,8 -17,8   Kalm -1607,4 1017,2 0 -
08:13 -17,8 -17,8   Kalm -1607,4 1017,2 0 -
08:15 -17,8 -17,8   Kalm -1607,4 1017,2 0 -
08:24 -17,8 -17,8   Kalm -1607,4 1017,5 0 -
08:26 -17,8 -17,8   Kalm -1607,4 1017,5 0 -
08:33 -17,8 -17,8   Kalm -1607,4 1017,5 0 -
08:41 -17,8 -17,8   Kalm -1607,4 1017,5 0 -
08:46 -17,8 -17,8   Kalm -1607,4 1017,8 0 -
08:54 -17,8 -17,8   Kalm -1607,4 1017,8 0 -
08:57 -17,8 -17,8   Kalm -1607,4 1017,8 0 -
09:03 -17,8 -17,8   Kalm -1607,4 1017,8 0 -
09:10 6,2 4,0 4,7 Zuiden 24,1 1017,5 86 -
09:19 6,4 4,2 13,0 ZW 19,3 1017,8 86 -
09:26 6,4 4,2 6,4 ZZW 19,3 1017,8 86 -
09:31 6,4 4,2 11,1 WZW 11,3 1017,8 86 -
09:35 6,6 4,4 7,9 ZW 14,5 1017,8 86 -
09:41 6,8 4,6 4,7 NW 14,5 1017,8 86 -
09:45 7,1 4,7 16,3 NW 20,9 1017,8 85 -
09:52 7,2 4,7 13,0 ZW 14,5 1018,2 84 -
09:55 7,1 4,6 11,1 ZW 14,5 1018,2 84 -
10:01 7,2 4,7 6,4 NW 16,1 1018,2 84 -
10:06 7,3 4,8 1,4 Westen 8,0 1018,2 84 -
10:10 7,4 4,7 6,4 WNW 14,5 1017,8 83 -
10:15 7,5 4,8 6,4 WZW 14,5 1018,2 83 -
10:24 7,8 5,1 4,7 ZZW 12,9 1017,8 83 -
10:26 7,8 4,9 7,9 Westen 14,5 1017,8 82 -
10:34 7,5 4,6 7,9 ZW 20,9 1017,8 82 -
10:35 7,4 4,7 6,4 WNW 14,5 1017,8 83 -
10:42 7,2 4,8 6,4 WNW 9,7 1017,8 85 -
10:45 7,1 4,7 3,2 WZW 16,1 1017,8 85 -
10:51 7,2 4,8 3,2 WZW 14,5 1017,8 85 -
10:55 7,3 4,9 7,9 NW 16,1 1018,2 85 -
11:00 7,4 4,9 4,7 NW 17,7 1018,2 84 -
11:15 7,5 4,8 4,7 ZW 16,1 1017,8 83 -
11:20 7,6 4,9 7,9 NW 20,9 1017,8 83 0,30
11:25 7,8 4,9 13,0 ZZW 19,3 1017,8 82 0,30
11:30 7,9 4,8 7,9 WNW 20,9 1017,8 81 0,30
11:35 8,0 4,9 7,9 NW 19,3 1017,8 81 0,30
11:44 8,6 5,3 11,1 WNW 20,9 1017,8 80 0,30
11:46 8,6 5,2 6,4 NW 14,5 1017,8 79 0,30
11:50 8,5 5,1 7,9 NW 19,3 1017,8 79 0,30
11:55 8,2 5,0 11,1 ZZW 24,1 1018,2 80 0,30
12:00 7,6 4,7 6,4 WNW 11,3 1018,2 82 0,30
12:05 7,3 4,8 1,4 NW 14,5 1018,2 84 0,30
12:10 7,3 4,9 1,4 NW 14,5 1017,8 85 0,30
12:17 7,5 5,1 11,1 ZW 14,5 1017,8 85 0,30
12:20 7,6 5,1 4,7 NW 12,9 1017,8 84 -
12:30 7,9 5,0 13,0 WZW 14,5 1017,8 82 -
12:35 8,2 5,3 9,7 NW 12,9 1017,8 82 -
12:40 8,3 5,2 6,4 WNW 16,1 1017,8 81 -
12:46 8,5 5,1 4,7 WNW 27,4 1017,8 79 -
12:53 8,6 5,3 13,0 ZZW 19,3 1017,8 80 -
12:55 8,5 5,1 4,7 NNW 25,7 1017,5 79 -
13:01 8,3 5,1 9,7 NW 17,7 1017,8 80 -
13:08 8,0 5,1 9,7 WNW 14,5 1017,8 82 -
13:11 8,0 5,5 6,4 WZW 9,7 1017,8 84 -
13:16 8,2 5,8 4,7 NNW 25,7 1017,5 85 -
13:21 8,4 5,7 6,4 Westen 19,3 1017,5 83 -
13:25 8,7 5,8 4,7 NW 16,1 1017,5 82 -
13:31 9,2 5,9 9,7 NW 17,7 1017,5 80 -
13:36 9,7 6,0 6,4 ZW 19,3 1017,5 78 -
13:46 9,3 5,3 4,7 ZW 22,5 1017,5 76 -
13:50 9,2 5,2 13,0 WZW 14,5 1017,5 76 -
13:57 8,8 5,0 6,4 NNW 20,9 1017,5 77 -
14:02 8,9 5,1 9,7 NW 20,9 1017,5 77 -
14:05 9,2 5,2 13,0 NNW 19,3 1017,5 76 -
14:12 9,3 4,9 6,4 NW 19,3 1017,5 74 -
14:15 9,1 4,7 1,4 NW 27,4 1017,5 74 -
14:21 8,8 4,6 7,9 Westen 19,3 1017,5 75 -
14:28 8,9 4,5 16,3 ZZW 25,7 1017,5 74 -
14:33 9,3 4,5 9,7 NW 20,9 1017,5 72 -
14:38 9,3 4,3 6,4 WNW 16,1 1017,5 71 -
14:43 9,3 4,5 4,7 NW 19,3 1017,5 72 -
14:48 9,2 4,2 14,3 NW 24,1 1017,2 71 -
15:00 9,1 4,5 9,7 NW 22,5 1017,2 73 -
15:08 8,9 4,5 9,7 NW 16,1 1017,2 74 -
15:12 8,9 4,3 7,9 NW 19,3 1017,2 73 -
15:15 8,8 4,2 7,9 NW 24,1 1017,2 73 -
15:22 9,0 4,0 1,4 NW 20,9 1016,8 71 -
15:26 9,0 4,2 13,0 NW 12,9 1016,8 72 -
15:32 8,9 3,9 6,4 WNW 19,3 1016,8 71 -
15:39 9,1 4,1 9,7 NW 20,9 1016,8 71 -
15:44 9,2 4,4 11,1 NW 17,7 1016,8 72 -
15:46 9,3 4,3 13,0 NW 17,7 1016,8 71 -
15:55 9,5 4,3 11,1 WZW 17,7 1016,8 70 -
16:02 9,5 4,1 6,4 NW 32,2 1016,8 69 -
16:05 9,4 3,8 22,7 NW 22,5 1016,8 68 -
16:15 9,3 4,1 7,9 NW 22,5 1016,5 70 -
16:21 9,2 4,2 3,2 NW 11,3 1016,5 71 -
16:27 9,2 4,2 6,4 NW 20,9 1016,5 71 -
16:30 9,3 4,5 16,3 ZZW 16,1 1016,5 72 -
16:39 9,3 4,5 3,2 WZW 14,5 1016,5 72 -
16:41 9,3 4,5 6,4 ZZW 17,7 1016,5 72 -
16:46 9,3 4,5 4,7 WNW 9,7 1016,5 72 -
16:50 9,3 4,5 3,2 NW 8,0 1016,1 72 -
16:55 9,3 4,5 3,2 ZW 16,1 1016,1 72 -
17:01 9,2 4,4 4,7 ZW 19,3 1016,1 72 -
17:05 9,2 4,4 7,9 NW 16,1 1016,1 72 -
17:10 9,1 4,1 7,9 NW 14,5 1016,1 71 -
17:15 9,1 4,3 7,9 Westen 12,9 1016,1 72 -
17:20 9,1 4,3   Kalm 24,1 1016,1 72 -
17:27 9,1 4,5 1,4 NW 8,0 1016,1 73 -
17:30 9,0 4,4 6,4 WNW 14,5 1016,1 73 -
17:38 9,1 4,5 1,4 NW 14,5 1015,8 73 -
17:41 9,1 4,7 6,4 NW 11,3 1015,8 74 -
17:45 9,1 4,7 9,7 NW 19,3 1015,8 74 -
17:51 9,1 4,7 13,0 ZZW 17,7 1015,8 74 -
17:55 9,0 4,4 9,7 NW 22,5 1015,8 73 -
18:00 9,0 4,6 6,4 ZW 19,3 1015,8 74 -
18:05 9,1 4,7 3,2 NW 12,9 1015,8 74 -
18:10 9,1 4,7 7,9 WZW 12,9 1015,8 74 -
18:15 9,0 4,6 4,7 NW 22,5 1015,5 74 -
18:21 8,9 4,7 7,9 WNW 11,3 1015,5 75 -
18:25 8,9 4,7 16,3 ZW 16,1 1015,5 75 -
18:43 9,0 4,8 7,9 ZW 17,7 1015,5 75 -
18:46 9,0 4,8 4,7 WNW 17,7 1015,5 75 -
18:50 9,0 4,8 9,7 NW 17,7 1015,5 75 -
18:56 9,0 4,8 7,9 NW 11,3 1015,5 75 -
19:00 9,0 4,8 4,7 WZW 20,9 1015,1 75 -
19:05 9,0 4,6 17,7 ZZW 17,7 1015,1 74 -
19:11 9,0 4,6 7,9 NW 14,5 1015,1 74 -

Download your copy of this data-set  here

Our weather-data as stored at Weather Underground. Script ontwikkeld door Jim McMurry. Aangepast voor de template door Leuven-Template.eu

U vindt ons ook hier:

UK Metoffice

Weather Underground

Apparatuur in gebruik:

Weerstation
Davis VP2 Pro

Weercomputer
Made on my Apple Macbook Pro

Davis VP2 Pro

Made on my Apple Macbook Pro